createdAt,value
2023-04-27T00:04:16.719Z,87.76
2023-04-27T00:09:19.640Z,88.27
2023-04-27T00:14:22.279Z,88.82
2023-04-27T00:19:25.863Z,88.80
2023-04-27T00:24:28.618Z,89.46
2023-04-27T00:29:33.877Z,89.79
2023-04-27T00:34:37.306Z,90.64
2023-04-27T00:39:40.332Z,89.92
2023-04-27T00:44:43.232Z,91.18
2023-04-27T00:49:45.984Z,90.97
2023-04-27T00:54:52.569Z,90.61
2023-04-27T00:59:57.034Z,90.79
2023-04-27T01:05:00.538Z,91.35
2023-04-27T01:10:04.979Z,91.10
2023-04-27T01:15:08.382Z,91.09
2023-04-27T01:20:11.908Z,91.23
2023-04-27T01:25:15.176Z,90.87
2023-04-27T01:30:17.900Z,91.13
2023-04-27T01:35:20.700Z,91.62
2023-04-27T01:40:23.444Z,91.58
2023-04-27T01:45:26.102Z,91.62
2023-04-27T01:50:28.733Z,91.49
2023-04-27T01:55:31.398Z,91.08
2023-04-27T02:00:34.343Z,91.90
2023-04-27T02:05:37.970Z,91.80
2023-04-27T02:10:40.827Z,91.60
2023-04-27T02:15:43.782Z,89.08
2023-04-27T02:20:46.528Z,86.00
2023-04-27T02:25:49.147Z,82.08
2023-04-27T02:30:51.937Z,76.48
2023-04-27T02:35:54.557Z,72.67
2023-04-27T02:40:57.318Z,66.70
2023-04-27T02:46:06.320Z,60.96
2023-04-27T02:51:08.997Z,65.85
2023-04-27T02:56:11.690Z,67.11
2023-04-27T03:01:17.518Z,67.90
2023-04-27T03:06:20.409Z,68.87
2023-04-27T03:11:23.112Z,68.04
2023-04-27T03:16:26.008Z,69.14
2023-04-27T03:21:28.872Z,69.12
2023-04-27T03:26:31.799Z,68.85
2023-04-27T03:31:34.668Z,67.91
2023-04-27T03:36:37.835Z,66.98
2023-04-27T03:41:41.220Z,65.76
2023-04-27T03:46:44.151Z,66.67
2023-04-27T03:51:47.949Z,66.58
2023-04-27T03:56:51.041Z,66.71
2023-04-27T04:01:54.775Z,66.93
2023-04-27T04:06:57.656Z,66.38
2023-04-27T04:12:02.189Z,66.50
2023-04-27T04:17:05.375Z,66.34
2023-04-27T04:22:08.419Z,66.48
2023-04-27T04:27:11.761Z,65.73
2023-04-27T04:32:17.966Z,65.59
2023-04-27T04:37:20.907Z,64.39
2023-04-27T04:42:23.956Z,64.01
2023-04-27T04:47:28.152Z,62.62
2023-04-27T04:52:31.073Z,62.09
2023-04-27T04:57:33.799Z,60.79
2023-04-27T05:02:37.050Z,59.66
2023-04-27T05:07:41.497Z,58.40
2023-04-27T05:12:45.018Z,57.07
2023-04-27T05:17:48.009Z,56.28
2023-04-27T05:22:50.815Z,54.05
2023-04-27T05:27:54.008Z,53.94
2023-04-27T05:32:57.353Z,52.64
2023-04-27T05:38:00.743Z,52.87
2023-04-27T05:43:05.799Z,52.67
2023-04-27T05:48:09.304Z,52.27
2023-04-27T05:53:12.426Z,51.20
2023-04-27T05:58:18.803Z,50.79
2023-04-27T07:07:58.295Z,41.89
2023-04-27T07:13:02.696Z,41.54
2023-04-27T07:18:05.957Z,40.96
2023-04-27T07:23:08.906Z,41.05
2023-04-27T07:28:12.068Z,40.95
2023-04-27T07:33:14.828Z,39.83
2023-04-27T07:38:20.987Z,39.76
2023-04-27T07:43:25.737Z,40.57
2023-04-27T07:48:31.473Z,40.01
2023-04-27T07:53:36.116Z,39.82
2023-04-27T07:58:38.896Z,39.93
2023-04-27T08:03:42.047Z,39.95
2023-04-27T08:08:44.994Z,40.17
2023-04-27T08:13:47.763Z,40.45
2023-04-27T08:18:51.018Z,40.41
2023-04-27T08:23:53.704Z,40.56
2023-04-27T08:28:57.603Z,39.25
2023-04-27T08:34:00.269Z,38.93
2023-04-27T08:39:05.756Z,38.63
2023-04-27T08:44:08.748Z,38.35
2023-04-27T08:49:13.163Z,39.40
2023-04-27T08:54:17.381Z,38.91
2023-04-27T08:59:20.610Z,39.65
2023-04-27T09:04:43.892Z,39.45
2023-04-27T09:09:53.639Z,38.96
2023-04-27T09:15:06.154Z,38.85
2023-04-27T09:20:13.069Z,38.35
2023-04-27T09:25:30.394Z,36.35
2023-04-27T09:30:37.225Z,34.80
2023-04-27T09:35:47.009Z,34.24
2023-04-27T09:40:51.649Z,35.28
2023-04-27T09:45:55.821Z,34.74
2023-04-27T09:50:58.764Z,35.31
2023-04-27T09:56:29.220Z,35.56
2023-04-27T10:02:17.058Z,34.63
2023-04-27T10:07:30.126Z,33.86
2023-04-27T10:12:37.198Z,32.88
2023-04-27T10:17:53.518Z,32.78
2023-04-27T10:22:56.320Z,34.69
2023-04-27T10:28:02.236Z,35.22
2023-04-27T10:33:08.821Z,35.83
2023-04-27T10:38:28.860Z,36.36
2023-04-27T10:43:37.853Z,36.84
2023-04-27T10:48:47.625Z,37.10
2023-04-27T10:53:53.734Z,37.64
2023-04-27T10:59:03.767Z,39.37
2023-04-27T11:04:06.722Z,41.81
2023-04-27T11:14:27.590Z,41.56
2023-04-27T11:19:31.063Z,41.55
2023-04-27T11:24:35.117Z,40.77
2023-04-27T11:29:39.241Z,39.74
2023-04-27T11:34:53.843Z,38.67
2023-04-27T11:40:05.914Z,37.59
2023-04-27T11:45:20.556Z,37.20
2023-04-27T11:50:29.093Z,37.73
2023-04-27T11:55:37.693Z,37.72
2023-04-27T12:00:49.970Z,37.44
2023-04-27T12:05:56.800Z,36.81
2023-04-27T12:11:08.017Z,35.22
2023-04-27T12:16:28.557Z,35.84
2023-04-27T12:21:32.503Z,35.70
2023-04-27T12:26:35.643Z,35.58
2023-04-27T12:31:38.673Z,35.59
2023-04-27T12:36:41.509Z,34.52
2023-04-27T12:52:36.584Z,34.90
2023-04-27T12:57:39.196Z,34.66
2023-04-27T13:02:43.533Z,34.53
2023-04-27T13:07:46.330Z,34.73
2023-04-27T13:12:49.314Z,35.09
2023-04-27T13:17:53.313Z,35.12
2023-04-27T13:22:56.511Z,35.26
2023-04-27T13:27:59.307Z,36.07
2023-04-27T13:33:18.483Z,35.47
2023-04-27T13:38:28.179Z,35.79
2023-04-27T13:43:36.638Z,36.50
2023-04-27T13:48:47.096Z,35.85
2023-04-27T13:53:49.883Z,36.13
2023-04-27T13:58:52.739Z,36.07
2023-04-27T14:03:55.845Z,35.88
2023-04-27T14:09:04.439Z,35.84
2023-04-27T14:14:20.752Z,36.38
2023-04-27T14:19:38.702Z,37.38
2023-04-27T14:24:44.256Z,37.69
2023-04-27T14:29:50.388Z,37.19
2023-04-27T14:34:53.129Z,37.41
2023-04-27T14:39:57.468Z,37.97
2023-04-27T14:45:36.727Z,38.17
2023-04-27T14:50:45.729Z,38.08
2023-04-27T14:55:48.947Z,37.53
2023-04-27T15:00:52.431Z,37.63
2023-04-27T15:05:55.525Z,37.50
2023-04-27T15:11:01.408Z,38.08
2023-04-27T15:16:09.970Z,38.45
2023-04-27T15:21:15.806Z,38.57
2023-04-27T15:26:18.800Z,39.01
2023-04-27T15:31:22.278Z,39.16
2023-04-27T15:36:42.512Z,39.66
2023-04-27T15:41:51.675Z,39.46
2023-04-27T15:46:59.554Z,39.32
2023-04-27T15:52:02.422Z,39.91
2023-04-27T15:57:05.219Z,40.45
2023-04-27T16:02:08.343Z,40.89
2023-04-27T16:07:24.280Z,41.40
2023-04-27T16:12:30.457Z,41.67
2023-04-27T16:17:39.898Z,42.31
2023-04-27T16:22:42.605Z,42.51
2023-04-27T16:27:50.367Z,43.29
2023-04-27T16:33:02.684Z,43.65
2023-04-27T16:38:06.148Z,43.89
2023-04-27T16:43:09.109Z,44.10
2023-04-27T16:48:13.352Z,44.57
2023-04-27T16:53:21.352Z,45.10
2023-04-27T16:58:59.371Z,46.12
2023-04-27T17:04:02.618Z,46.68
2023-04-27T17:09:17.817Z,47.52
2023-04-27T17:19:40.763Z,48.75
2023-04-27T17:24:43.538Z,49.23
2023-04-27T17:29:47.173Z,49.62
2023-04-27T17:34:51.423Z,50.29
2023-04-27T17:39:54.619Z,51.35
2023-04-27T17:44:57.459Z,51.78
2023-04-27T17:50:00.158Z,52.36
2023-04-27T17:55:03.044Z,52.81
2023-04-27T18:00:07.428Z,53.50
2023-04-27T18:05:12.810Z,53.23
2023-04-27T18:10:15.669Z,53.69
2023-04-27T18:15:18.413Z,53.92
2023-04-27T18:20:23.251Z,54.37
2023-04-27T18:25:26.299Z,54.45
2023-04-27T18:30:30.596Z,55.03
2023-04-27T18:35:33.449Z,55.36
2023-04-27T18:40:37.105Z,56.16
2023-04-27T18:45:39.922Z,56.53
2023-04-27T18:50:42.788Z,57.13
2023-04-27T18:55:45.530Z,57.48
2023-04-27T19:00:48.266Z,57.67
2023-04-27T19:05:53.392Z,57.95
2023-04-27T19:10:56.309Z,58.25
2023-04-27T19:15:59.388Z,58.29
2023-04-27T19:21:03.530Z,58.41
2023-04-27T19:26:13.255Z,58.41
2023-04-27T19:31:17.741Z,58.61
2023-04-27T19:36:20.551Z,58.67
2023-04-27T19:41:23.959Z,58.51
2023-04-27T19:46:27.096Z,58.93
2023-04-27T19:51:30.538Z,59.03
2023-04-27T19:56:33.474Z,59.42
2023-04-27T20:01:36.509Z,59.66
2023-04-27T20:06:40.935Z,60.07
2023-04-27T20:11:43.595Z,60.12
2023-04-27T20:16:46.700Z,60.20
2023-04-27T20:21:50.184Z,60.31
2023-04-27T20:26:52.765Z,60.52
2023-04-27T20:31:55.415Z,60.80
2023-04-27T20:36:58.220Z,60.97
2023-04-27T20:42:04.411Z,60.96
2023-04-27T20:47:13.395Z,60.77
2023-04-27T20:52:16.431Z,61.00
2023-04-27T20:57:28.631Z,60.99
2023-04-27T21:02:39.517Z,61.12
2023-04-27T21:07:42.551Z,61.30
2023-04-27T21:12:45.248Z,61.32
2023-04-27T21:17:48.065Z,61.47
2023-04-27T21:22:53.922Z,62.14
2023-04-27T21:27:56.895Z,62.39
2023-04-27T21:33:11.520Z,62.36
2023-04-27T21:38:14.106Z,62.48
2023-04-27T21:43:16.869Z,62.35
2023-04-27T21:48:19.872Z,62.27
2023-04-27T21:53:23.224Z,63.49
2023-04-27T21:58:26.215Z,63.61
2023-04-27T22:03:31.452Z,64.78
2023-04-27T22:08:37.101Z,65.61
2023-04-27T22:13:39.781Z,66.14
2023-04-27T22:18:45.295Z,66.93
2023-04-27T22:23:48.599Z,67.82
2023-04-27T22:28:56.893Z,68.59
2023-04-27T22:33:59.616Z,68.94
2023-04-27T22:39:02.566Z,69.90
2023-04-27T22:44:12.637Z,70.36
2023-04-27T22:49:24.668Z,71.37
2023-04-27T22:54:34.883Z,71.99
2023-04-27T22:59:37.444Z,72.95
2023-04-27T23:04:43.960Z,73.69
2023-04-27T23:09:48.371Z,74.14
2023-04-27T23:14:54.156Z,74.96
2023-04-27T23:19:58.130Z,75.31
2023-04-27T23:25:03.647Z,75.82
2023-04-27T23:30:13.701Z,76.22
2023-04-27T23:35:23.690Z,76.51
2023-04-27T23:40:30.413Z,77.17
2023-04-27T23:45:35.879Z,77.75
2023-04-27T23:50:41.552Z,78.22
2023-04-27T23:55:49.617Z,77.97
